Time;durP1;ratioP1;P1;durP2;ratioP2;P2;SDS_P1;SDS_P2;PMS_P1;PMS_P2;Temp;Humidity;BMP_temperature;BMP_pressure;BME280_temperature;BME280_humidity;BME280_pressure;Samples;Min_cycle;Max_cycle;Signal;HPM_P1;HPM_P2
2022/06/22 00:00:05;;;;;;;;;;;25.30;72.10;;;;;;5133950;27;19951;-68
2022/06/22 00:02:34;;;;;;;;;;;25.20;72.50;;;;;;5134245;27;19903;-68
2022/06/22 00:05:01;;;;;;;;;;;25.20;72.50;;;;;;5133581;27;19921;-69
2022/06/22 00:07:33;;;;;;;;;;;25.30;72.60;;;;;;5132428;27;19939;-68
2022/06/22 00:10:05;;;;;;;;;;;25.20;72.20;;;;;;5133892;27;19903;-69
2022/06/22 00:12:31;;;;;;;;;;;25.20;72.30;;;;;;5133934;27;19914;-69
2022/06/22 00:14:59;;;;;;;;;;;25.30;72.70;;;;;;5134007;27;19907;-69
2022/06/22 00:17:38;;;;;;;;;;;25.30;72.30;;;;;;5133741;27;19903;-70
2022/06/22 00:20:09;;;;;;;;;;;25.30;72.10;;;;;;5132228;27;20347;-68
2022/06/22 00:22:51;;;;;;;;;;;25.20;72.10;;;;;;5133834;27;19918;-69
2022/06/22 00:25:22;;;;;;;;;;;25.20;71.80;;;;;;5133529;27;19947;-69
2022/06/22 00:27:47;;;;;;;;;;;25.30;71.80;;;;;;5133558;27;19945;-69
2022/06/22 00:30:16;;;;;;;;;;;25.30;71.70;;;;;;5133489;27;20355;-69
2022/06/22 00:33:00;;;;;;;;;;;25.30;72.30;;;;;;5131909;27;19929;-69
2022/06/22 00:35:47;;;;;;;;;;;25.20;72.30;;;;;;5133918;27;20026;-69
2022/06/22 00:38:16;;;;;;;;;;;25.20;72.20;;;;;;5133260;27;19982;-70
2022/06/22 00:40:42;;;;;;;;;;;25.20;72.60;;;;;;5133449;27;20075;-69
2022/06/22 00:43:12;;;;;;;;;;;25.20;73.00;;;;;;5133786;27;20354;-68
2022/06/22 00:45:39;;;;;;;;;;;25.20;73.30;;;;;;5133433;27;19959;-69
2022/06/22 00:48:07;;;;;;;;;;;25.10;73.40;;;;;;5131880;27;20227;-69
2022/06/22 00:50:37;;;;;;;;;;;25.10;73.40;;;;;;5133241;27;19991;-69
2022/06/22 00:53:05;;;;;;;;;;;25.00;73.70;;;;;;5133140;27;19911;-69
2022/06/22 00:55:33;;;;;;;;;;;25.00;73.80;;;;;;5133312;27;19910;-69
2022/06/22 00:58:02;;;;;;;;;;;25.00;73.80;;;;;;5133008;27;19983;-69
2022/06/22 01:00:30;;;;;;;;;;;25.00;73.90;;;;;;5133067;27;20355;-69
2022/06/22 01:03:00;;;;;;;;;;;25.00;74.20;;;;;;5131444;27;19911;-68
2022/06/22 01:05:41;;;;;;;;;;;24.90;74.50;;;;;;5132305;27;20337;-69
2022/06/22 01:08:13;;;;;;;;;;;24.80;74.70;;;;;;5132998;27;19926;-69
2022/06/22 01:10:48;;;;;;;;;;;24.70;74.90;;;;;;5131403;28;19903;-69
2022/06/22 01:13:33;;;;;;;;;;;24.70;74.50;;;;;;5133270;28;19908;-68
2022/06/22 01:16:02;;;;;;;;;;;24.70;74.50;;;;;;5132870;28;19903;-69
2022/06/22 01:18:43;;;;;;;;;;;24.70;74.60;;;;;;5131383;28;20241;-68
2022/06/22 01:21:28;;;;;;;;;;;24.70;74.60;;;;;;5132879;27;20263;-68
2022/06/22 01:23:54;;;;;;;;;;;24.80;74.30;;;;;;5133006;27;19907;-69
2022/06/22 01:26:23;;;;;;;;;;;24.70;74.40;;;;;;5133070;28;20027;-70
2022/06/22 01:28:58;;;;;;;;;;;24.70;74.50;;;;;;5132744;28;20383;-69
2022/06/22 01:31:24;;;;;;;;;;;24.60;74.60;;;;;;5132806;27;19907;-68
2022/06/22 01:33:51;;;;;;;;;;;24.60;74.60;;;;;;5132846;27;19903;-69
2022/06/22 01:36:23;;;;;;;;;;;24.60;74.60;;;;;;5132717;27;19904;-69
2022/06/22 01:38:49;;;;;;;;;;;24.60;74.60;;;;;;5132687;27;20045;-69
2022/06/22 01:41:15;;;;;;;;;;;24.60;74.60;;;;;;5131283;28;19907;-69
2022/06/22 01:43:58;;;;;;;;;;;24.60;74.30;;;;;;5132562;28;19903;-70
2022/06/22 01:46:34;;;;;;;;;;;24.50;74.50;;;;;;5132643;27;19968;-69
2022/06/22 01:49:26;;;;;;;;;;;24.60;74.50;;;;;;5132911;27;20075;-69
2022/06/22 01:51:54;;;;;;;;;;;24.60;74.50;;;;;;5108162;27;20358;-69
2022/06/22 01:54:23;;;;;;;;;;;24.60;74.60;;;;;;5132660;27;19931;-69
2022/06/22 01:56:51;;;;;;;;;;;24.60;74.50;;;;;;5132445;27;19947;-69
2022/06/22 01:59:21;;;;;;;;;;;24.60;74.50;;;;;;5132542;27;19926;-69
2022/06/22 02:02:08;;;;;;;;;;;24.60;74.20;;;;;;5132507;27;19909;-69
2022/06/22 02:04:43;;;;;;;;;;;24.60;74.20;;;;;;5132289;27;19915;-69
2022/06/22 02:10:18;;;;;;;;;;;24.60;73.90;;;;;;5132526;28;19948;-69
2022/06/22 02:12:53;;;;;;;;;;;24.60;73.60;;;;;;5132319;27;19911;-69
2022/06/22 02:15:24;;;;;;;;;;;24.70;73.80;;;;;;5132720;27;19994;-69
2022/06/22 02:17:51;;;;;;;;;;;24.70;73.70;;;;;;5135820;27;19903;-69
2022/06/22 02:20:23;;;;;;;;;;;24.60;73.80;;;;;;5136213;27;20378;-69
2022/06/22 02:22:50;;;;;;;;;;;24.70;73.60;;;;;;5135883;27;19910;-69
2022/06/22 02:25:17;;;;;;;;;;;24.60;73.60;;;;;;5135965;27;19911;-69
2022/06/22 02:27:43;;;;;;;;;;;24.60;73.40;;;;;;5133983;27;19904;-69
2022/06/22 02:30:09;;;;;;;;;;;24.70;73.30;;;;;;5136120;27;19942;-70
2022/06/22 02:32:37;;;;;;;;;;;24.70;73.00;;;;;;5136035;27;19915;-69
2022/06/22 02:35:04;;;;;;;;;;;24.70;72.40;;;;;;5133805;27;20052;-69
2022/06/22 02:37:33;;;;;;;;;;;24.80;72.50;;;;;;5135431;27;19926;-69
2022/06/22 02:40:01;;;;;;;;;;;24.80;72.60;;;;;;5135327;27;19907;-69
2022/06/22 02:45:13;;;;;;;;;;;24.80;72.80;;;;;;5135325;27;19964;-69
2022/06/22 02:47:43;;;;;;;;;;;24.80;72.90;;;;;;5135604;27;19903;-69
2022/06/22 02:50:09;;;;;;;;;;;24.70;73.10;;;;;;5135164;27;20275;-69
2022/06/22 02:52:38;;;;;;;;;;;24.80;73.40;;;;;;5135892;27;19903;-69
2022/06/22 02:55:04;;;;;;;;;;;24.80;73.40;;;;;;5135389;27;19972;-69
2022/06/22 02:57:41;;;;;;;;;;;24.80;73.50;;;;;;5135841;27;20359;-69
2022/06/22 03:00:08;;;;;;;;;;;24.80;73.80;;;;;;5135500;27;19964;-69
2022/06/22 03:02:34;;;;;;;;;;;24.80;74.10;;;;;;5135478;27;19907;-69
2022/06/22 03:05:00;;;;;;;;;;;24.80;74.10;;;;;;5135299;27;19919;-69
2022/06/22 03:07:27;;;;;;;;;;;24.80;74.20;;;;;;5135610;27;19909;-69
2022/06/22 03:09:53;;;;;;;;;;;24.80;74.30;;;;;;5135196;27;20320;-69
2022/06/22 03:12:19;;;;;;;;;;;24.70;74.20;;;;;;5135396;27;20079;-69
2022/06/22 03:14:52;;;;;;;;;;;24.70;74.10;;;;;;5135032;27;20363;-68
2022/06/22 03:17:19;;;;;;;;;;;24.60;74.20;;;;;;5135126;27;20381;-69
2022/06/22 03:19:50;;;;;;;;;;;24.60;74.20;;;;;;5135683;27;19907;-69
2022/06/22 03:22:21;;;;;;;;;;;24.60;74.40;;;;;;5135802;27;19948;-69
2022/06/22 03:24:53;;;;;;;;;;;24.60;74.50;;;;;;5135431;27;20002;-69
2022/06/22 03:27:22;;;;;;;;;;;24.60;74.30;;;;;;5135153;27;19968;-69
2022/06/22 03:30:00;;;;;;;;;;;24.60;73.60;;;;;;5135286;27;20007;-69
2022/06/22 03:32:28;;;;;;;;;;;24.60;73.20;;;;;;5135181;27;20323;-69
2022/06/22 03:35:02;;;;;;;;;;;24.60;72.40;;;;;;5135592;27;19946;-69
2022/06/22 03:37:30;;;;;;;;;;;24.60;72.40;;;;;;5135267;27;19910;-69
2022/06/22 03:39:58;;;;;;;;;;;24.60;72.10;;;;;;5135026;27;19986;-69
2022/06/22 03:42:30;;;;;;;;;;;24.60;72.10;;;;;;5135223;27;19930;-69
2022/06/22 03:45:04;;;;;;;;;;;24.60;72.30;;;;;;5135142;27;19958;-69
2022/06/22 03:47:43;;;;;;;;;;;24.60;72.70;;;;;;5135054;27;19904;-69
2022/06/22 03:50:12;;;;;;;;;;;24.60;73.00;;;;;;5134786;27;20231;-69
2022/06/22 03:52:41;;;;;;;;;;;24.60;73.00;;;;;;5134775;27;19911;-69
2022/06/22 03:55:11;;;;;;;;;;;24.60;73.00;;;;;;5133350;27;19903;-69
2022/06/22 03:57:38;;;;;;;;;;;24.60;73.00;;;;;;5134577;27;19910;-69
2022/06/22 04:00:06;;;;;;;;;;;24.70;72.90;;;;;;5134466;27;19917;-69
2022/06/22 04:02:32;;;;;;;;;;;24.70;73.10;;;;;;5134524;27;19979;-69
2022/06/22 04:04:58;;;;;;;;;;;24.80;73.20;;;;;;5134065;27;20027;-69
2022/06/22 04:07:25;;;;;;;;;;;24.80;73.50;;;;;;5134077;27;19972;-69
2022/06/22 04:09:55;;;;;;;;;;;24.80;73.80;;;;;;5134524;27;19904;-69
2022/06/22 04:12:54;;;;;;;;;;;24.80;73.60;;;;;;5134187;27;19911;-69
2022/06/22 04:15:19;;;;;;;;;;;24.90;73.50;;;;;;5070963;28;19947;-69
2022/06/22 04:17:48;;;;;;;;;;;25.00;73.30;;;;;;5071664;28;20038;-69
2022/06/22 04:20:25;;;;;;;;;;;25.10;72.60;;;;;;5071366;28;19950;-69
2022/06/22 04:22:55;;;;;;;;;;;25.10;71.20;;;;;;5071682;28;20015;-69
2022/06/22 04:25:21;;;;;;;;;;;25.20;69.30;;;;;;5071498;28;19912;-69
2022/06/22 04:27:50;;;;;;;;;;;25.20;69.10;;;;;;5071903;28;19912;-69
2022/06/22 04:30:18;;;;;;;;;;;25.30;68.80;;;;;;5071196;28;19915;-69
2022/06/22 04:32:49;;;;;;;;;;;25.30;68.20;;;;;;5071887;28;19904;-69
2022/06/22 04:35:27;;;;;;;;;;;25.50;67.70;;;;;;5071262;28;19904;-69
2022/06/22 04:37:53;;;;;;;;;;;25.60;67.10;;;;;;5071514;28;20006;-69
2022/06/22 04:40:24;;;;;;;;;;;25.70;67.00;;;;;;5070980;28;20090;-69
2022/06/22 04:42:52;;;;;;;;;;;25.90;66.80;;;;;;5071850;28;20001;-69
2022/06/22 04:45:31;;;;;;;;;;;26.00;66.30;;;;;;5071232;28;19965;-69
2022/06/22 04:48:00;;;;;;;;;;;26.10;66.50;;;;;;5071732;28;20361;-69
2022/06/22 04:50:26;;;;;;;;;;;26.30;66.30;;;;;;5090935;27;19903;-69
2022/06/22 04:52:55;;;;;;;;;;;26.60;66.30;;;;;;5135136;27;20359;-69
2022/06/22 04:55:25;;;;;;;;;;;26.90;67.60;;;;;;5134317;27;19903;-70
2022/06/22 04:57:53;;;;;;;;;;;27.10;67.70;;;;;;5134377;27;20300;-70
2022/06/22 05:00:21;;;;;;;;;;;27.20;67.70;;;;;;5134041;27;20341;-71
2022/06/22 05:02:49;;;;;;;;;;;27.60;66.90;;;;;;5134370;27;19903;-69
2022/06/22 05:05:15;;;;;;;;;;;28.40;66.00;;;;;;5133984;27;19926;-68
2022/06/22 05:07:44;;;;;;;;;;;29.30;64.70;;;;;;5134138;27;19903;-69
2022/06/22 05:10:19;;;;;;;;;;;30.20;62.90;;;;;;5133905;28;20274;-69
2022/06/22 05:12:48;;;;;;;;;;;31.10;60.70;;;;;;5133847;28;20443;-69
2022/06/22 05:15:43;;;;;;;;;;;32.10;59.50;;;;;;5133798;28;19956;-69
2022/06/22 05:18:11;;;;;;;;;;;33.00;58.60;;;;;;5070980;28;20268;-69
2022/06/22 05:20:55;;;;;;;;;;;33.60;55.00;;;;;;5070902;28;19935;-69
2022/06/22 05:23:23;;;;;;;;;;;33.70;53.80;;;;;;5071020;28;19904;-69
2022/06/22 05:25:51;;;;;;;;;;;34.30;52.90;;;;;;5071127;28;19940;-69
2022/06/22 05:28:21;;;;;;;;;;;35.10;52.30;;;;;;5071087;28;19904;-69
2022/06/22 05:30:50;;;;;;;;;;;35.60;51.50;;;;;;5070618;28;19908;-69
2022/06/22 05:33:18;;;;;;;;;;;35.90;51.00;;;;;;5070796;28;19908;-69
2022/06/22 05:35:49;;;;;;;;;;;36.90;50.40;;;;;;5070618;28;19905;-69
2022/06/22 05:38:17;;;;;;;;;;;37.70;49.40;;;;;;5070203;28;19934;-69
2022/06/22 05:40:44;;;;;;;;;;;38.50;47.90;;;;;;5070456;28;19908;-69
2022/06/22 05:43:10;;;;;;;;;;;39.10;46.90;;;;;;5053494;28;20316;-70
2022/06/22 05:45:39;;;;;;;;;;;39.50;46.10;;;;;;5070296;28;19912;-70
2022/06/22 05:48:05;;;;;;;;;;;40.30;45.60;;;;;;5053971;28;20218;-70
2022/06/22 05:50:33;;;;;;;;;;;40.60;44.80;;;;;;5071657;28;19954;-70
2022/06/22 05:53:17;;;;;;;;;;;41.00;43.20;;;;;;5074506;28;19992;-70
2022/06/22 05:55:56;;;;;;;;;;;41.40;42.40;;;;;;5137126;27;19910;-70
2022/06/22 05:58:41;;;;;;;;;;;42.00;41.10;;;;;;5137313;27;19993;-70
2022/06/22 06:01:12;;;;;;;;;;;42.40;40.60;;;;;;5135325;27;19910;-68
2022/06/22 06:03:41;;;;;;;;;;;42.60;41.50;;;;;;5137373;27;19919;-68
2022/06/22 06:06:11;;;;;;;;;;;42.70;43.60;;;;;;5136632;27;19966;-69
2022/06/22 06:08:49;;;;;;;;;;;43.10;43.50;;;;;;5137321;27;19903;-69
2022/06/22 06:11:18;;;;;;;;;;;43.50;42.70;;;;;;5136980;27;19907;-70
2022/06/22 06:13:46;;;;;;;;;;;43.80;42.10;;;;;;5136999;27;19970;-69
2022/06/22 06:16:15;;;;;;;;;;;44.20;41.40;;;;;;5135745;27;19903;-69
2022/06/22 06:18:42;;;;;;;;;;;44.70;41.90;;;;;;5137725;27;20339;-69
2022/06/22 06:21:10;;;;;;;;;;;44.70;41.80;;;;;;5137367;27;20044;-69
2022/06/22 06:23:39;;;;;;;;;;;45.00;41.20;;;;;;5137115;27;19903;-69
2022/06/22 06:28:53;;;;;;;;;;;44.80;40.60;;;;;;5137564;27;20228;-70
2022/06/22 06:31:25;;;;;;;;;;;45.60;41.00;;;;;;5135642;27;19904;-69
2022/06/22 06:33:52;;;;;;;;;;;45.80;41.00;;;;;;5136820;27;20305;-70
2022/06/22 06:36:17;;;;;;;;;;;45.40;38.70;;;;;;5136908;27;20014;-69
2022/06/22 06:38:53;;;;;;;;;;;45.20;38.70;;;;;;5136605;27;19942;-69
2022/06/22 06:41:28;;;;;;;;;;;45.60;39.20;;;;;;5136718;27;19903;-69
2022/06/22 06:43:58;;;;;;;;;;;46.00;38.50;;;;;;5136360;27;19903;-70
2022/06/22 06:46:30;;;;;;;;;;;45.90;37.50;;;;;;5136666;27;19970;-69
2022/06/22 06:48:59;;;;;;;;;;;46.40;37.40;;;;;;5136098;27;19956;-70
2022/06/22 06:51:26;;;;;;;;;;;46.80;38.50;;;;;;5136698;27;20459;-69
2022/06/22 06:54:00;;;;;;;;;;;47.00;39.40;;;;;;5136804;27;20007;-69
2022/06/22 06:56:33;;;;;;;;;;;47.20;40.00;;;;;;5136894;27;20460;-69
2022/06/22 06:59:01;;;;;;;;;;;47.40;39.90;;;;;;5136481;27;19965;-69
2022/06/22 07:01:29;;;;;;;;;;;46.80;39.00;;;;;;5135850;27;19925;-71
2022/06/22 07:03:59;;;;;;;;;;;47.10;38.90;;;;;;5136717;27;20411;-70
2022/06/22 07:06:26;;;;;;;;;;;46.50;38.40;;;;;;5136003;27;19997;-70
2022/06/22 07:08:55;;;;;;;;;;;46.30;39.00;;;;;;5136122;27;19904;-71
2022/06/22 07:11:44;;;;;;;;;;;44.80;39.40;;;;;;5136836;27;19903;-69
2022/06/22 07:14:18;;;;;;;;;;;44.60;39.50;;;;;;5136255;27;19903;-70
2022/06/22 07:16:44;;;;;;;;;;;43.90;39.90;;;;;;5136579;27;19941;-69
2022/06/22 07:19:12;;;;;;;;;;;43.30;41.60;;;;;;5136139;27;19911;-69
2022/06/22 07:21:56;;;;;;;;;;;42.10;42.40;;;;;;5136317;27;19903;-69
2022/06/22 07:24:34;;;;;;;;;;;41.40;43.50;;;;;;5136373;27;20259;-69
2022/06/22 07:27:06;;;;;;;;;;;40.20;45.20;;;;;;5137883;27;19975;-69
2022/06/22 07:29:46;;;;;;;;;;;39.50;46.20;;;;;;5151436;27;20344;-67
2022/06/22 07:32:17;;;;;;;;;;;38.80;48.30;;;;;;5152816;27;19912;-66
2022/06/22 07:34:58;;;;;;;;;;;38.70;48.30;;;;;;5151293;27;19909;-67
2022/06/22 07:37:28;;;;;;;;;;;37.80;52.00;;;;;;5156533;27;19909;-67
2022/06/22 07:39:58;;;;;;;;;;;37.20;49.10;;;;;;5156069;27;19925;-67
2022/06/22 07:42:24;;;;;;;;;;;37.20;50.10;;;;;;5156059;27;19949;-67
2022/06/22 07:44:50;;;;;;;;;;;37.40;50.20;;;;;;5156479;27;19907;-66
2022/06/22 07:47:19;;;;;;;;;;;37.20;50.30;;;;;;5155972;27;19914;-67
2022/06/22 07:49:54;;;;;;;;;;;37.50;50.10;;;;;;5150031;27;19922;-68
2022/06/22 07:52:23;;;;;;;;;;;37.70;50.20;;;;;;5155354;27;19909;-68
2022/06/22 07:54:55;;;;;;;;;;;37.70;51.00;;;;;;5155294;27;19910;-69
2022/06/22 07:57:40;;;;;;;;;;;36.80;52.30;;;;;;5155217;27;19914;-68
2022/06/22 08:00:08;;;;;;;;;;;36.70;53.40;;;;;;5154893;27;19930;-70
2022/06/22 08:02:39;;;;;;;;;;;36.60;54.60;;;;;;5154621;27;19903;-68
2022/06/22 08:05:08;;;;;;;;;;;36.10;57.10;;;;;;5155062;27;20010;-68
2022/06/22 08:07:39;;;;;;;;;;;35.70;58.40;;;;;;5154955;27;19903;-68
2022/06/22 08:10:26;;;;;;;;;;;35.90;58.10;;;;;;5156207;27;20303;-70
2022/06/22 08:13:10;;;;;;;;;;;36.20;58.40;;;;;;5155444;27;19918;-68
2022/06/22 08:15:41;;;;;;;;;;;36.00;58.30;;;;;;5154447;27;19926;-68
2022/06/22 08:18:08;;;;;;;;;;;36.00;60.00;;;;;;5155612;27;19902;-69
2022/06/22 08:20:35;;;;;;;;;;;34.80;62.30;;;;;;5155369;27;19903;-69
2022/06/22 08:23:04;;;;;;;;;;;34.80;63.00;;;;;;5154849;27;19903;-69
2022/06/22 08:25:31;;;;;;;;;;;34.90;62.90;;;;;;5155128;27;19962;-69
2022/06/22 08:27:57;;;;;;;;;;;35.20;63.10;;;;;;5155613;27;19903;-69
2022/06/22 08:30:23;;;;;;;;;;;35.30;63.40;;;;;;5155035;27;19909;-69
2022/06/22 08:32:51;;;;;;;;;;;35.60;62.10;;;;;;5155701;27;19903;-69
2022/06/22 08:35:46;;;;;;;;;;;35.70;62.40;;;;;;5154890;27;19955;-70
2022/06/22 08:38:20;;;;;;;;;;;36.10;62.60;;;;;;5137059;27;19903;-69
2022/06/22 08:40:47;;;;;;;;;;;35.60;62.70;;;;;;5153666;27;19906;-69
2022/06/22 08:43:23;;;;;;;;;;;35.70;62.60;;;;;;5155012;27;19903;-69
2022/06/22 08:45:49;;;;;;;;;;;35.70;63.90;;;;;;5154864;27;19958;-70
2022/06/22 08:48:15;;;;;;;;;;;35.30;64.90;;;;;;5154913;27;19937;-70
2022/06/22 08:50:43;;;;;;;;;;;34.70;65.20;;;;;;5153177;27;20259;-69
2022/06/22 08:53:28;;;;;;;;;;;34.90;65.80;;;;;;5154930;27;19962;-69
2022/06/22 08:55:59;;;;;;;;;;;34.80;65.80;;;;;;5154416;27;19971;-69
2022/06/22 08:59:01;;;;;;;;;;;34.90;66.50;;;;;;5155050;27;19907;-69
2022/06/22 09:01:45;;;;;;;;;;;34.80;66.50;;;;;;5070899;28;20357;-69
2022/06/22 09:04:25;;;;;;;;;;;35.10;67.10;;;;;;5147352;27;19903;-69
2022/06/22 09:06:57;;;;;;;;;;;35.00;67.20;;;;;;5155031;27;19910;-71
2022/06/22 09:09:31;;;;;;;;;;;34.80;68.60;;;;;;5155041;27;20391;-70
2022/06/22 09:12:21;;;;;;;;;;;34.70;68.40;;;;;;5154500;27;19907;-69
2022/06/22 09:14:53;;;;;;;;;;;34.40;69.10;;;;;;5154106;27;20378;-67
2022/06/22 09:17:36;;;;;;;;;;;34.40;70.80;;;;;;5154199;27;19909;-67
2022/06/22 09:20:20;;;;;;;;;;;34.70;70.20;;;;;;5154371;27;19911;-68
2022/06/22 09:22:55;;;;;;;;;;;35.00;69.30;;;;;;5154202;27;19907;-68
2022/06/22 09:25:29;;;;;;;;;;;34.40;69.50;;;;;;5153866;27;19915;-67
2022/06/22 09:28:03;;;;;;;;;;;34.30;71.50;;;;;;5158339;27;19909;-68
2022/06/22 09:30:32;;;;;;;;;;;34.30;72.30;;;;;;5156815;27;20251;-68
2022/06/22 09:33:22;;;;;;;;;;;34.00;73.80;;;;;;5158082;27;19903;-68
2022/06/22 09:36:00;;;;;;;;;;;34.10;74.20;;;;;;5158438;27;19903;-68
2022/06/22 09:38:42;;;;;;;;;;;34.30;72.30;;;;;;5158297;27;20009;-69
2022/06/22 09:41:28;;;;;;;;;;;34.30;73.70;;;;;;5158519;27;19963;-69
2022/06/22 09:44:03;;;;;;;;;;;34.30;72.60;;;;;;5115904;27;19914;-69
2022/06/22 09:46:36;;;;;;;;;;;34.30;72.90;;;;;;5158520;27;20215;-69
2022/06/22 09:49:17;;;;;;;;;;;34.20;73.20;;;;;;5156543;27;19974;-69
2022/06/22 09:52:03;;;;;;;;;;;33.70;74.00;;;;;;5157800;27;19903;-70
2022/06/22 09:57:28;;;;;;;;;;;33.80;74.40;;;;;;5157874;27;19966;-69
2022/06/22 09:59:57;;;;;;;;;;;33.90;75.00;;;;;;5158023;27;19903;-69
2022/06/22 10:02:34;;;;;;;;;;;34.00;74.30;;;;;;5157963;27;19958;-69
2022/06/22 10:05:19;;;;;;;;;;;34.00;74.80;;;;;;5156007;27;20011;-69
2022/06/22 10:07:56;;;;;;;;;;;34.00;72.00;;;;;;5156276;27;19926;-69
2022/06/22 10:10:25;;;;;;;;;;;34.00;72.10;;;;;;5157637;27;19946;-68
2022/06/22 10:13:13;;;;;;;;;;;34.20;71.80;;;;;;5157915;27;19903;-69
2022/06/22 10:15:48;;;;;;;;;;;34.40;72.00;;;;;;5146439;27;19922;-69
2022/06/22 10:18:14;;;;;;;;;;;34.30;69.80;;;;;;5158118;27;19903;-69
2022/06/22 10:20:59;;;;;;;;;;;34.10;70.70;;;;;;5157706;27;19903;-69
2022/06/22 10:23:40;;;;;;;;;;;34.20;72.00;;;;;;5157541;27;20354;-70
2022/06/22 10:26:06;;;;;;;;;;;34.10;68.90;;;;;;5157481;27;19966;-69
2022/06/22 10:28:47;;;;;;;;;;;34.00;71.10;;;;;;5157306;27;19910;-69
2022/06/22 10:31:31;;;;;;;;;;;34.10;72.00;;;;;;5157730;27;19910;-69
2022/06/22 10:34:11;;;;;;;;;;;34.10;70.10;;;;;;5157387;27;20347;-69
2022/06/22 10:36:55;;;;;;;;;;;34.00;71.70;;;;;;5156132;27;20366;-69
2022/06/22 10:39:28;;;;;;;;;;;34.10;71.30;;;;;;5157093;27;20415;-69
2022/06/22 10:45:10;;;;;;;;;;;34.20;70.60;;;;;;5121697;27;20275;-69
2022/06/22 10:47:54;;;;;;;;;;;34.10;68.40;;;;;;5155284;27;19913;-69
2022/06/22 10:50:32;;;;;;;;;;;34.00;69.30;;;;;;5156664;27;20068;-70
2022/06/22 10:53:18;;;;;;;;;;;34.10;69.60;;;;;;5156129;27;19998;-71
2022/06/22 10:55:50;;;;;;;;;;;33.90;70.50;;;;;;5140695;27;19903;-69
2022/06/22 10:58:16;;;;;;;;;;;34.10;67.90;;;;;;5155852;27;19967;-69
2022/06/22 11:00:51;;;;;;;;;;;34.10;69.10;;;;;;5156011;27;19998;-69
2022/06/22 11:03:33;;;;;;;;;;;34.10;71.30;;;;;;5156489;27;19946;-68
2022/06/22 11:06:05;;;;;;;;;;;34.10;71.70;;;;;;5155869;27;19981;-69
2022/06/22 11:08:43;;;;;;;;;;;34.30;71.70;;;;;;5154299;27;20279;-67
2022/06/22 11:11:21;;;;;;;;;;;34.30;70.80;;;;;;5156047;27;19909;-69
2022/06/22 11:13:59;;;;;;;;;;;34.40;70.30;;;;;;5156155;27;19910;-69
2022/06/22 11:16:25;;;;;;;;;;;34.50;68.80;;;;;;5156106;27;19903;-69
2022/06/22 11:19:10;;;;;;;;;;;34.40;65.80;;;;;;5156466;27;19902;-69
2022/06/22 11:21:36;;;;;;;;;;;34.20;65.90;;;;;;5157132;27;20358;-69
2022/06/22 11:24:24;;;;;;;;;;;34.00;66.30;;;;;;5155521;27;19993;-71
2022/06/22 11:32:48;;;;;;;;;;;33.80;64.70;;;;;;5156752;27;19973;-68
2022/06/22 11:35:40;;;;;;;;;;;33.70;66.60;;;;;;5156681;27;20342;-69
2022/06/22 11:38:12;;;;;;;;;;;33.90;66.70;;;;;;5155233;27;19922;-70
2022/06/22 11:40:44;;;;;;;;;;;33.90;66.90;;;;;;5155974;27;19990;-68
2022/06/22 11:43:16;;;;;;;;;;;33.80;65.60;;;;;;5156363;27;19906;-69
2022/06/22 11:45:50;;;;;;;;;;;33.70;68.90;;;;;;5156100;27;19910;-68
2022/06/22 11:48:22;;;;;;;;;;;33.70;64.60;;;;;;5155954;27;19907;-67
2022/06/22 11:50:54;;;;;;;;;;;33.70;63.80;;;;;;5156082;27;20347;-67
2022/06/22 11:53:26;;;;;;;;;;;33.90;65.40;;;;;;5155649;27;20433;-68
2022/06/22 11:55:55;;;;;;;;;;;34.10;63.10;;;;;;5155492;27;19949;-68
2022/06/22 11:58:27;;;;;;;;;;;34.20;63.00;;;;;;5155362;27;19968;-68
2022/06/22 12:01:09;;;;;;;;;;;34.10;63.60;;;;;;5155164;27;19903;-67
2022/06/22 12:03:38;;;;;;;;;;;34.20;63.40;;;;;;5155541;27;19907;-67
2022/06/22 12:06:22;;;;;;;;;;;34.10;63.60;;;;;;5155089;27;19915;-68
2022/06/22 12:08:54;;;;;;;;;;;34.10;64.10;;;;;;5155521;27;19903;-67
2022/06/22 12:11:39;;;;;;;;;;;34.30;63.60;;;;;;5155118;27;20410;-67
2022/06/22 12:17:14;;;;;;;;;;;34.60;61.60;;;;;;5155554;27;19963;-67
2022/06/22 12:19:56;;;;;;;;;;;34.80;61.40;;;;;;5154132;27;19903;-67
2022/06/22 12:22:40;;;;;;;;;;;34.90;60.10;;;;;;5155959;27;19909;-67
2022/06/22 12:25:15;;;;;;;;;;;34.60;57.70;;;;;;5155416;27;19959;-68
2022/06/22 12:27:42;;;;;;;;;;;34.40;59.20;;;;;;5155821;27;19910;-67
2022/06/22 12:30:14;;;;;;;;;;;34.30;60.80;;;;;;5155225;27;19990;-69
2022/06/22 12:32:43;;;;;;;;;;;34.30;54.90;;;;;;5155278;27;19903;-68
2022/06/22 12:35:16;;;;;;;;;;;34.40;56.10;;;;;;5155078;27;20369;-68
2022/06/22 12:37:47;;;;;;;;;;;34.40;54.10;;;;;;5156070;27;19938;-67
2022/06/22 12:40:25;;;;;;;;;;;34.20;52.70;;;;;;5155881;27;20001;-68
2022/06/22 12:43:00;;;;;;;;;;;34.00;53.90;;;;;;5155750;27;19948;-70
2022/06/22 12:45:48;;;;;;;;;;;33.60;52.50;;;;;;5155475;27;19957;-70
2022/06/22 12:48:32;;;;;;;;;;;33.50;52.90;;;;;;5153947;27;20387;-70
2022/06/22 12:51:17;;;;;;;;;;;33.50;53.10;;;;;;5155032;27;20303;-67
2022/06/22 12:53:50;;;;;;;;;;;33.80;52.20;;;;;;5154644;27;19903;-67
2022/06/22 12:56:21;;;;;;;;;;;34.00;51.50;;;;;;5154570;27;19911;-69
2022/06/22 12:58:56;;;;;;;;;;;34.20;51.30;;;;;;5154961;27;19940;-68
2022/06/22 13:01:22;;;;;;;;;;;34.30;50.80;;;;;;5152289;27;19938;-68
2022/06/22 13:03:54;;;;;;;;;;;34.30;50.30;;;;;;5155078;27;19960;-69
2022/06/22 13:06:20;;;;;;;;;;;34.30;50.30;;;;;;5153987;27;19915;-68
2022/06/22 13:08:47;;;;;;;;;;;34.40;51.50;;;;;;5154672;27;19911;-69
2022/06/22 13:11:16;;;;;;;;;;;34.50;53.20;;;;;;5155222;27;20250;-68
2022/06/22 13:13:41;;;;;;;;;;;34.60;52.70;;;;;;5155180;27;19903;-70
2022/06/22 13:16:12;;;;;;;;;;;34.50;60.20;;;;;;5155169;27;19994;-69
2022/06/22 13:18:44;;;;;;;;;;;34.40;63.30;;;;;;5154946;27;19910;-68
2022/06/22 13:21:16;;;;;;;;;;;34.50;64.10;;;;;;5155380;27;20347;-68
2022/06/22 13:23:43;;;;;;;;;;;34.30;65.20;;;;;;5153956;27;19911;-69
2022/06/22 13:26:12;;;;;;;;;;;34.20;66.00;;;;;;5155009;27;20406;-69
2022/06/22 13:28:56;;;;;;;;;;;34.20;67.00;;;;;;5155088;27;19903;-68
2022/06/22 13:31:26;;;;;;;;;;;34.00;67.90;;;;;;5155040;27;19903;-68
2022/06/22 13:33:54;;;;;;;;;;;34.10;67.60;;;;;;5155545;27;19906;-69
2022/06/22 13:36:25;;;;;;;;;;;34.30;67.60;;;;;;5154947;27;20343;-69
2022/06/22 13:39:09;;;;;;;;;;;34.20;67.70;;;;;;5155311;27;19903;-69
2022/06/22 13:41:41;;;;;;;;;;;34.10;68.90;;;;;;5155358;27;20398;-69
2022/06/22 13:44:25;;;;;;;;;;;33.90;69.10;;;;;;5155237;27;20293;-68
2022/06/22 13:47:09;;;;;;;;;;;33.80;69.30;;;;;;5154702;27;20019;-68
2022/06/22 13:49:53;;;;;;;;;;;33.70;68.70;;;;;;5154775;27;19909;-69
2022/06/22 13:52:37;;;;;;;;;;;33.80;69.80;;;;;;5153494;27;19947;-69
2022/06/22 13:55:28;;;;;;;;;;;33.70;68.50;;;;;;5153673;27;19910;-68
2022/06/22 13:58:05;;;;;;;;;;;33.70;69.70;;;;;;5153977;27;20231;-69
2022/06/22 14:00:50;;;;;;;;;;;33.70;68.30;;;;;;5154114;27;19955;-69
2022/06/22 14:03:21;;;;;;;;;;;33.70;71.20;;;;;;5153912;27;19956;-68
2022/06/22 14:06:09;;;;;;;;;;;33.70;69.80;;;;;;5153638;27;19919;-69
2022/06/22 14:08:40;;;;;;;;;;;33.70;65.90;;;;;;5154223;27;19903;-68
2022/06/22 14:11:08;;;;;;;;;;;33.80;64.60;;;;;;5154493;27;19903;-68
2022/06/22 14:13:40;;;;;;;;;;;33.70;65.80;;;;;;5157937;27;19910;-68
2022/06/22 14:16:13;;;;;;;;;;;33.80;65.60;;;;;;5157438;27;20263;-69
2022/06/22 14:18:54;;;;;;;;;;;33.70;64.30;;;;;;5157565;27;20270;-68
2022/06/22 14:21:35;;;;;;;;;;;33.80;65.10;;;;;;5157506;27;19903;-69
2022/06/22 14:24:13;;;;;;;;;;;33.70;65.60;;;;;;5158088;27;20287;-69
2022/06/22 14:26:48;;;;;;;;;;;33.80;66.20;;;;;;5157295;27;19975;-69
2022/06/22 14:29:29;;;;;;;;;;;33.90;66.30;;;;;;5157899;27;19911;-69
2022/06/22 14:32:18;;;;;;;;;;;34.10;66.10;;;;;;5157231;27;19903;-69
2022/06/22 14:34:43;;;;;;;;;;;34.30;65.10;;;;;;5157850;27;19903;-68
2022/06/22 14:37:13;;;;;;;;;;;34.30;68.70;;;;;;5157290;27;20002;-68
2022/06/22 14:39:59;;;;;;;;;;;34.10;69.00;;;;;;5157403;27;19986;-68
2022/06/22 14:42:34;;;;;;;;;;;34.00;68.50;;;;;;5142436;27;19903;-68
2022/06/22 14:45:06;;;;;;;;;;;33.70;69.50;;;;;;5156770;27;19975;-69
2022/06/22 14:47:35;;;;;;;;;;;33.70;70.20;;;;;;5157002;27;20328;-69
2022/06/22 14:50:19;;;;;;;;;;;33.50;71.40;;;;;;5157046;27;19909;-68
2022/06/22 14:53:03;;;;;;;;;;;33.40;71.60;;;;;;5156762;27;19903;-69
2022/06/22 14:55:38;;;;;;;;;;;33.40;72.70;;;;;;5156427;27;19903;-69
2022/06/22 14:58:09;;;;;;;;;;;33.20;73.40;;;;;;5156469;27;19903;-69
2022/06/22 15:00:35;;;;;;;;;;;33.40;71.70;;;;;;5156982;27;20265;-69
2022/06/22 15:03:19;;;;;;;;;;;33.50;69.90;;;;;;5156528;27;19914;-68
2022/06/22 15:06:04;;;;;;;;;;;33.40;70.20;;;;;;5156118;27;20022;-69
2022/06/22 15:08:34;;;;;;;;;;;33.50;69.90;;;;;;5156234;27;19911;-69
2022/06/22 15:12:56;;;;;;;;;;;33.30;70.20;;;;;;5156203;27;20373;-69
2022/06/22 15:13:57;;;;;;;;;;;33.40;71.50;;;;;;5156579;27;20274;-69